Time;durP1;ratioP1;P1;durP2;ratioP2;P2;SDS_P1;SDS_P2;PMS_P1;PMS_P2;Temp;Humidity;BMP_temperature;BMP_pressure;BME280_temperature;BME280_humidity;BME280_pressure;Samples;Min_cycle;Max_cycle;Signal;HPM_P1;HPM_P2
2021/10/01 00:00:18;;;;;;;1.90;1.70;;;;;;;9.03;74.66;97468.16;5072690;28;20254;-72
2021/10/01 00:02:44;;;;;;;2.53;1.73;;;;;;;9.12;74.43;97459.94;5072003;28;20428;-72
2021/10/01 00:05:09;;;;;;;2.47;2.00;;;;;;;9.09;74.48;97468.16;5072952;28;20189;-72
2021/10/01 00:07:35;;;;;;;3.03;1.97;;;;;;;9.03;75.45;97461.13;5073158;28;20181;-72
2021/10/01 00:10:00;;;;;;;2.80;2.10;;;;;;;8.96;75.34;97451.69;5072611;28;20225;-72
2021/10/01 00:12:26;;;;;;;3.17;2.10;;;;;;;8.92;75.53;97453.88;5072310;28;20264;-72
2021/10/01 00:14:51;;;;;;;2.20;2.00;;;;;;;8.87;75.91;97456.28;5072556;28;20338;-72
2021/10/01 00:17:17;;;;;;;2.70;2.17;;;;;;;8.90;75.64;97449.88;5072718;28;20235;-72
2021/10/01 00:19:42;;;;;;;1.90;1.80;;;;;;;9.02;74.89;97445.66;5072632;28;20607;-73
2021/10/01 00:22:08;;;;;;;1.90;1.67;;;;;;;9.18;74.12;97450.50;5072587;28;20185;-73
2021/10/01 00:24:35;;;;;;;3.57;1.50;;;;;;;9.16;73.55;97445.44;5072806;28;20637;-73
2021/10/01 00:27:01;;;;;;;1.40;1.30;;;;;;;9.27;72.63;97448.47;5072380;28;20174;-73
2021/10/01 00:29:26;;;;;;;2.20;1.53;;;;;;;9.26;72.99;97431.16;5072425;28;20185;-72
2021/10/01 00:31:52;;;;;;;1.73;1.63;;;;;;;9.21;73.47;97444.03;5072350;28;20288;-73
2021/10/01 00:34:18;;;;;;;2.50;1.97;;;;;;;9.41;72.65;97435.19;5037873;28;20736;-73
2021/10/01 00:36:44;;;;;;;1.60;1.50;;;;;;;9.44;72.06;97429.53;5072556;28;20188;-73
2021/10/01 00:39:09;;;;;;;2.97;2.03;;;;;;;9.47;72.00;97433.56;5072291;28;20549;-73
2021/10/01 00:41:36;;;;;;;1.70;1.60;;;;;;;9.31;72.11;97421.69;5054523;28;20284;-73
2021/10/01 00:44:02;;;;;;;4.47;1.50;;;;;;;9.29;72.19;97423.72;5072637;28;20181;-72
2021/10/01 00:46:28;;;;;;;1.67;1.57;;;;;;;9.34;72.38;97423.91;5054418;28;20190;-72
2021/10/01 00:48:53;;;;;;;4.03;1.77;;;;;;;9.24;72.66;97428.75;5072632;28;20208;-73
2021/10/01 00:51:22;;;;;;;2.10;1.60;;;;;;;9.35;72.00;97425.53;5077237;28;20228;-74
2021/10/01 00:53:48;;;;;;;1.83;1.70;;;;;;;9.33;72.17;97422.31;5076282;28;20197;-73
2021/10/01 00:56:14;;;;;;;2.97;1.40;;;;;;;9.30;72.07;97421.91;5075980;28;20185;-73
2021/10/01 00:58:40;;;;;;;1.90;1.70;;;;;;;9.40;72.15;97417.06;5076433;28;20185;-72
2021/10/01 01:01:11;;;;;;;1.70;1.60;;;;;;;9.29;72.23;97422.94;5076031;28;20280;-73
2021/10/01 01:03:43;;;;;;;1.93;1.63;;;;;;;9.25;72.32;97413.88;5076130;28;20246;-73
2021/10/01 01:06:38;;;;;;;1.60;1.50;;;;;;;9.24;73.01;97410.47;5060520;28;20173;-72
2021/10/01 01:09:31;;;;;;;2.00;1.80;;;;;;;9.19;73.08;97405.03;5076242;28;20231;-72
2021/10/01 01:12:09;;;;;;;1.90;1.80;;;;;;;9.11;73.34;97400.78;5075052;28;20182;-72
2021/10/01 01:14:52;;;;;;;1.77;1.60;;;;;;;9.04;73.91;97397.38;5075771;28;20208;-72
2021/10/01 01:17:22;;;;;;;1.60;1.50;;;;;;;9.06;73.59;97390.16;5058519;28;20192;-72
2021/10/01 01:20:06;;;;;;;1.73;1.63;;;;;;;9.12;73.53;97383.31;5075917;28;20193;-71
2021/10/01 01:22:59;;;;;;;3.23;2.00;;;;;;;9.10;73.89;97383.50;5075756;28;20267;-72
2021/10/01 01:25:39;;;;;;;2.70;2.50;;;;;;;8.96;74.82;97379.28;5075942;28;20178;-73
2021/10/01 01:28:24;;;;;;;2.57;1.90;;;;;;;8.89;75.18;97382.91;5075596;28;20173;-72
2021/10/01 01:30:51;;;;;;;2.77;2.27;;;;;;;8.90;75.46;97368.81;5076092;28;20192;-72
2021/10/01 01:33:22;;;;;;;2.77;2.37;;;;;;;8.72;75.89;97372.03;5075666;28;20205;-72
2021/10/01 01:35:53;;;;;;;2.07;1.87;;;;;;;8.57;77.13;97369.63;5075844;28;20174;-72
2021/10/01 01:38:26;;;;;;;3.20;2.00;;;;;;;8.68;76.38;97374.25;5075371;28;20260;-72
2021/10/01 01:40:55;;;;;;;3.60;2.10;;;;;;;8.64;76.37;97365.19;5075552;28;20185;-72
2021/10/01 01:43:22;;;;;;;2.97;2.60;;;;;;;8.93;75.15;97357.94;5075771;28;20185;-72
2021/10/01 01:45:48;;;;;;;2.13;2.00;;;;;;;8.92;75.24;97359.75;5075343;28;20201;-73
2021/10/01 01:48:14;;;;;;;2.47;2.20;;;;;;;8.90;75.65;97356.56;5075407;28;20231;-72
2021/10/01 01:50:39;;;;;;;2.17;2.00;;;;;;;8.95;75.05;97355.94;5075107;28;20185;-72
2021/10/01 01:53:08;;;;;;;3.13;2.33;;;;;;;8.81;75.79;97352.53;5075071;28;20181;-72
2021/10/01 01:55:34;;;;;;;3.87;2.30;;;;;;;8.79;75.81;97343.28;5075206;28;20238;-72
2021/10/01 01:58:01;;;;;;;2.30;1.87;;;;;;;8.82;75.60;97341.06;5075467;28;20185;-72
2021/10/01 02:00:28;;;;;;;3.03;2.17;;;;;;;8.77;75.84;97336.44;5075471;28;20194;-73
2021/10/01 02:02:55;;;;;;;2.27;2.07;;;;;;;8.71;76.50;97346.91;5075339;28;20189;-73
2021/10/01 02:05:21;;;;;;;2.53;2.10;;;;;;;8.73;76.52;97337.88;5075186;28;20185;-72
2021/10/01 02:07:48;;;;;;;2.87;2.10;;;;;;;9.01;75.00;97339.47;5075216;28;20193;-72
2021/10/01 02:10:16;;;;;;;4.43;1.83;;;;;;;8.99;75.15;97337.03;5075225;28;20229;-73
2021/10/01 02:12:44;;;;;;;2.20;2.00;;;;;;;8.78;76.12;97334.66;5074577;28;20264;-73
2021/10/01 02:15:12;;;;;;;3.07;2.50;;;;;;;8.67;76.50;97340.47;5074593;28;20193;-73
2021/10/01 02:17:41;;;;;;;2.43;1.90;;;;;;;8.60;77.08;97335.25;5057022;28;20646;-72
2021/10/01 02:20:09;;;;;;;2.77;2.13;;;;;;;8.63;76.83;97326.22;5057010;28;20177;-73
2021/10/01 02:22:35;;;;;;;2.33;2.20;;;;;;;8.68;76.51;97321.19;5075017;28;20188;-73
2021/10/01 02:25:00;;;;;;;2.40;2.20;;;;;;;8.71;76.77;97312.94;5056641;28;20189;-71
2021/10/01 02:27:36;;;;;;;2.27;2.07;;;;;;;8.53;77.58;97317.94;5074697;28;20195;-71
2021/10/01 02:30:14;;;;;;;2.20;2.00;;;;;;;8.55;77.60;97308.09;5075053;28;20180;-72
2021/10/01 02:32:56;;;;;;;2.93;2.60;;;;;;;8.44;77.76;97300.88;5074830;28;20216;-72
2021/10/01 02:35:22;;;;;;;2.10;1.90;;;;;;;8.67;77.21;97293.44;5060422;28;20178;-71
2021/10/01 02:37:48;;;;;;;2.50;2.20;;;;;;;8.39;77.96;97295.44;5074361;28;20235;-72
2021/10/01 02:40:14;;;;;;;2.53;2.33;;;;;;;8.23;78.93;97294.78;5056763;28;20185;-72
2021/10/01 02:42:39;;;;;;;2.37;2.17;;;;;;;8.28;79.04;97302.03;5074428;28;20267;-73
2021/10/01 02:45:07;;;;;;;1.97;1.87;;;;;;;8.30;78.95;97295.63;5074461;28;20196;-72
2021/10/01 02:47:34;;;;;;;2.80;1.90;;;;;;;8.27;78.81;97290.78;5074422;28;20660;-72
2021/10/01 02:50:04;;;;;;;4.53;2.20;;;;;;;8.38;78.49;97286.00;5074510;28;20633;-72
2021/10/01 02:52:34;;;;;;;3.13;2.30;;;;;;;8.12;80.01;97292.78;5074321;28;20185;-73
2021/10/01 02:55:29;;;;;;;3.40;2.10;;;;;;;8.06;80.26;97290.13;5073624;28;20197;-71
2021/10/01 02:58:08;;;;;;;3.03;2.10;;;;;;;8.18;79.55;97286.75;5074552;28;20747;-71
2021/10/01 03:00:35;;;;;;;4.97;2.30;;;;;;;8.30;79.26;97295.63;5073238;28;20190;-71
2021/10/01 03:03:04;;;;;;;2.30;2.10;;;;;;;8.38;79.07;97280.75;5073433;28;20715;-71
2021/10/01 03:05:30;;;;;;;2.40;2.03;;;;;;;8.23;79.76;97283.53;5073910;28;20186;-73
2021/10/01 03:07:58;;;;;;;2.50;2.30;;;;;;;8.13;80.11;97285.75;5073779;28;20181;-71
2021/10/01 03:10:24;;;;;;;2.33;2.10;;;;;;;8.05;80.79;97283.31;5073267;28;20229;-73
2021/10/01 03:12:53;;;;;;;3.57;2.53;;;;;;;8.04;81.18;97286.91;5072929;28;20229;-70
2021/10/01 03:15:20;;;;;;;3.77;2.20;;;;;;;7.99;81.35;97282.28;5073678;28;20750;-70
2021/10/01 03:17:46;;;;;;;2.57;2.37;;;;;;;7.96;81.51;97285.31;5055866;28;20276;-70
2021/10/01 03:20:13;;;;;;;2.37;2.20;;;;;;;8.11;80.99;97285.94;5055938;28;20173;-71
2021/10/01 03:22:40;;;;;;;3.33;2.60;;;;;;;7.98;81.34;97285.09;5073826;28;20212;-70
2021/10/01 03:25:06;;;;;;;3.20;2.50;;;;;;;8.13;80.84;97277.91;5073581;28;20181;-71
2021/10/01 03:27:33;;;;;;;1.87;1.77;;;;;;;7.98;81.44;97278.06;5055853;28;20187;-70
2021/10/01 03:30:00;;;;;;;2.17;2.07;;;;;;;8.13;80.41;97267.47;5073530;28;20264;-71
2021/10/01 03:32:30;;;;;;;2.40;2.17;;;;;;;8.05;80.34;97273.66;5073087;28;20602;-71
2021/10/01 03:34:56;;;;;;;2.00;1.90;;;;;;;8.28;79.38;97268.09;5057296;28;20719;-71
2021/10/01 03:37:22;;;;;;;1.80;1.70;;;;;;;8.27;79.50;97275.09;5073425;28;20188;-71
2021/10/01 03:39:57;;;;;;;3.13;1.80;;;;;;;8.24;79.45;97275.53;5073600;28;20177;-71
2021/10/01 03:42:24;;;;;;;1.70;1.60;;;;;;;8.27;79.38;97276.91;5054961;28;20220;-71
2021/10/01 03:44:50;;;;;;;2.20;1.97;;;;;;;8.16;79.71;97273.09;5071506;28;20236;-72
2021/10/01 03:47:15;;;;;;;2.20;2.00;;;;;;;8.23;79.68;97260.03;5073181;28;20185;-71
2021/10/01 03:49:41;;;;;;;1.80;1.70;;;;;;;8.16;79.79;97265.25;5072973;28;20251;-72
2021/10/01 03:52:09;;;;;;;2.43;1.93;;;;;;;7.98;81.00;97264.22;5055208;28;20202;-71
2021/10/01 03:54:36;;;;;;;1.93;1.83;;;;;;;8.18;79.95;97263.25;5072458;28;20205;-70
2021/10/01 03:57:02;;;;;;;2.63;2.00;;;;;;;8.16;80.40;97254.81;5073078;28;20188;-70
2021/10/01 03:59:27;;;;;;;2.20;2.03;;;;;;;8.35;79.54;97255.88;5072507;28;20530;-71
2021/10/01 04:01:53;;;;;;;2.50;2.10;;;;;;;8.25;79.71;97252.78;5054919;28;20195;-71
2021/10/01 04:04:18;;;;;;;2.17;1.97;;;;;;;8.23;79.51;97253.03;5054606;28;20224;-71
2021/10/01 04:06:43;;;;;;;2.40;2.17;;;;;;;8.30;79.74;97245.22;5072832;28;20188;-71
2021/10/01 04:09:09;;;;;;;3.63;2.13;;;;;;;8.10;80.55;97255.59;5037873;28;20223;-71
2021/10/01 04:11:37;;;;;;;3.87;2.20;;;;;;;8.13;80.22;97249.19;5072037;28;20211;-71
2021/10/01 04:14:03;;;;;;;2.53;1.90;;;;;;;8.20;80.09;97247.38;5072321;28;20629;-71
2021/10/01 04:16:28;;;;;;;2.00;1.87;;;;;;;8.19;80.17;97251.78;5072865;28;20193;-71
2021/10/01 04:18:53;;;;;;;4.17;2.13;;;;;;;8.17;79.98;97248.59;5072894;28;20220;-72
2021/10/01 04:21:19;;;;;;;2.43;2.23;;;;;;;8.20;80.15;97240.34;5072773;28;20243;-71
2021/10/01 04:23:44;;;;;;;3.20;2.13;;;;;;;8.25;80.07;97240.53;5071163;28;20177;-71
2021/10/01 04:26:09;;;;;;;2.07;1.87;;;;;;;8.09;80.56;97240.13;5072303;28;20191;-70
2021/10/01 04:28:35;;;;;;;2.27;2.07;;;;;;;8.09;80.58;97238.31;5072840;28;20189;-70
2021/10/01 04:31:01;;;;;;;2.20;2.00;;;;;;;8.07;80.97;97235.13;5072796;28;20215;-71
2021/10/01 04:33:28;;;;;;;2.33;1.93;;;;;;;8.16;80.59;97231.31;5072378;28;20208;-71
2021/10/01 04:35:53;;;;;;;3.57;2.00;;;;;;;8.29;79.78;97228.72;5072563;28;20192;-72
2021/10/01 04:38:21;;;;;;;2.33;2.07;;;;;;;8.26;80.14;97229.09;5054584;28;20181;-72
2021/10/01 04:40:47;;;;;;;2.43;1.80;;;;;;;8.27;80.28;97227.28;5072614;28;20653;-71
2021/10/01 04:43:12;;;;;;;3.13;1.80;;;;;;;8.21;79.98;97228.09;5072299;28;20200;-71
2021/10/01 04:45:37;;;;;;;1.77;1.67;;;;;;;8.19;80.54;97232.72;5072297;28;20264;-71
2021/10/01 04:48:05;;;;;;;2.07;1.97;;;;;;;8.10;80.55;97241.75;5072683;28;20195;-72
2021/10/01 04:50:30;;;;;;;2.60;2.20;;;;;;;8.01;81.20;97248.16;5072753;28;20185;-72
2021/10/01 04:52:56;;;;;;;1.90;1.80;;;;;;;8.10;80.77;97239.94;5072012;28;20197;-71
2021/10/01 04:55:21;;;;;;;2.20;2.00;;;;;;;8.04;80.75;97237.31;5072215;28;20236;-71
2021/10/01 04:57:49;;;;;;;7.33;2.63;;;;;;;8.19;80.27;97236.13;5072475;28;20185;-72
2021/10/01 05:00:14;;;;;;;2.00;1.87;;;;;;;8.06;80.92;97246.56;5053998;28;20177;-70
2021/10/01 05:02:40;;;;;;;2.03;1.90;;;;;;;7.94;81.28;97245.53;5071563;28;20211;-71
2021/10/01 05:05:05;;;;;;;2.53;2.00;;;;;;;7.99;81.54;97244.94;5072459;28;20311;-70
2021/10/01 05:07:31;;;;;;;2.23;1.80;;;;;;;8.03;81.04;97248.75;5072314;28;20250;-69
2021/10/01 05:09:56;;;;;;;2.90;2.07;;;;;;;7.93;81.77;97243.94;5072185;28;20224;-70
2021/10/01 05:12:22;;;;;;;3.93;1.80;;;;;;;7.93;81.67;97242.13;5071701;28;20197;-70
2021/10/01 05:14:47;;;;;;;2.00;1.90;;;;;;;7.95;81.61;97247.16;5071507;28;20284;-69
2021/10/01 05:17:12;;;;;;;3.23;1.97;;;;;;;7.91;81.90;97240.72;5054084;28;20634;-69
2021/10/01 05:19:38;;;;;;;2.70;2.40;;;;;;;7.94;81.84;97245.53;5072095;28;20178;-70
2021/10/01 05:22:04;;;;;;;3.67;2.07;;;;;;;8.02;81.42;97245.38;5071952;28;20193;-70
2021/10/01 05:24:29;;;;;;;4.67;2.47;;;;;;;7.86;82.26;97249.13;5071840;28;20274;-71
2021/10/01 05:26:57;;;;;;;2.90;2.60;;;;;;;7.93;82.25;97242.13;5053678;28;20193;-70
2021/10/01 05:29:23;;;;;;;3.60;2.33;;;;;;;7.77;82.82;97249.53;5071989;28;20641;-69
2021/10/01 05:31:48;;;;;;;6.33;3.00;;;;;;;7.80;82.82;97242.09;5053858;28;20197;-72
2021/10/01 05:34:14;;;;;;;4.03;2.87;;;;;;;8.01;81.87;97246.38;5072272;28;20239;-71
2021/10/01 05:36:39;;;;;;;4.63;3.10;;;;;;;7.80;82.49;97242.09;5074620;28;20613;-73
2021/10/01 05:39:05;;;;;;;7.83;2.77;;;;;;;8.02;81.33;97240.16;5057435;28;20181;-73
2021/10/01 05:41:30;;;;;;;2.80;2.60;;;;;;;7.92;81.65;97235.28;5075549;28;20221;-72
2021/10/01 05:43:57;;;;;;;4.20;2.80;;;;;;;7.77;82.59;97233.88;5075231;28;20189;-71
2021/10/01 05:46:23;;;;;;;3.30;2.47;;;;;;;7.82;82.10;97241.91;5057549;28;20205;-71
2021/10/01 05:48:51;;;;;;;2.57;2.37;;;;;;;7.94;81.65;97242.94;5057525;28;20264;-71
2021/10/01 05:51:17;;;;;;;3.57;2.90;;;;;;;7.97;81.19;97239.91;5075630;28;20186;-72
2021/10/01 05:56:08;;;;;;;3.13;2.60;;;;;;;8.12;80.72;97231.91;5074941;28;20243;-71
2021/10/01 05:58:43;;;;;;;3.00;2.30;;;;;;;8.15;80.52;97236.72;5056762;28;20260;-72
2021/10/01 06:01:09;;;;;;;2.67;2.43;;;;;;;8.09;81.27;97227.06;5075011;28;20177;-71
2021/10/01 06:03:35;;;;;;;2.37;2.27;;;;;;;8.29;80.26;97231.31;5075013;28;20268;-74
2021/10/01 06:06:00;;;;;;;4.27;2.23;;;;;;;8.50;79.36;97235.56;5074819;28;20272;-73
2021/10/01 06:08:26;;;;;;;2.80;2.60;;;;;;;8.49;79.13;97238.38;5057175;28;20187;-71
2021/10/01 06:10:51;;;;;;;2.70;2.50;;;;;;;8.66;78.87;97234.34;5072599;28;20225;-73
2021/10/01 06:13:16;;;;;;;2.97;2.67;;;;;;;8.96;77.73;97239.94;5067080;28;20185;-71
2021/10/01 06:15:42;;;;;;;2.20;2.00;;;;;;;9.12;76.70;97236.88;5074792;28;20185;-71
2021/10/01 06:18:08;;;;;;;4.27;2.37;;;;;;;9.24;76.28;97232.59;5074639;28;20196;-70
2021/10/01 06:20:33;;;;;;;3.50;2.03;;;;;;;9.28;75.70;97232.97;5074871;28;20212;-71
2021/10/01 06:22:59;;;;;;;2.40;2.17;;;;;;;9.46;75.21;97228.69;5056593;28;20239;-70
2021/10/01 06:25:24;;;;;;;2.10;2.00;;;;;;;9.50;75.11;97234.28;5073846;28;20239;-71
2021/10/01 06:27:50;;;;;;;2.53;2.33;;;;;;;9.71;74.11;97225.31;5056840;28;20178;-71
2021/10/01 06:30:16;;;;;;;2.73;2.40;;;;;;;9.83;73.81;97234.13;5074643;28;20181;-70
2021/10/01 06:32:42;;;;;;;3.90;2.83;;;;;;;9.86;73.17;97228.47;5074941;28;20242;-71
2021/10/01 06:35:08;;;;;;;4.40;2.70;;;;;;;9.78;73.83;97221.66;5073975;28;20233;-70
2021/10/01 06:37:34;;;;;;;2.33;2.10;;;;;;;9.76;75.64;97228.13;5074756;28;20663;-70
2021/10/01 06:39:59;;;;;;;4.40;2.23;;;;;;;10.08;74.04;97227.13;5074146;28;20268;-70
2021/10/01 06:42:25;;;;;;;4.03;2.13;;;;;;;10.49;71.17;97228.44;5073881;28;20193;-70
2021/10/01 06:44:52;;;;;;;2.30;2.07;;;;;;;10.74;70.24;97224.00;5074258;28;20206;-71
2021/10/01 06:47:47;;;;;;;4.30;2.30;;;;;;;10.79;69.93;97218.91;5055366;28;20185;-71
2021/10/01 06:51:03;;;;;;;2.07;1.90;;;;;;;10.92;69.92;97218.78;5073249;28;20640;-72
2021/10/01 06:53:13;;;;;;;3.67;2.17;;;;;;;11.01;68.71;97216.66;5050970;28;20197;-71
2021/10/01 07:23:38;;;;;;;2.40;2.20;;;;;;;11.30;68.87;97215.13;5073123;28;20602;-72
2021/10/01 08:19:48;;;;;;;1.97;1.77;;;;;;;13.30;63.30;97209.75;5072430;28;20175;-69
2021/10/01 08:22:13;;;;;;;3.07;2.23;;;;;;;13.08;64.63;97211.38;5072524;28;20186;-69
2021/10/01 08:24:39;;;;;;;1.73;1.50;;;;;;;13.07;64.96;97207.13;5072461;28;20258;-69
2021/10/01 08:27:05;;;;;;;3.40;2.17;;;;;;;13.20;65.09;97204.28;5072295;28;20527;-69
2021/10/01 08:29:32;;;;;;;2.10;1.90;;;;;;;13.36;64.98;97204.56;5054734;28;20178;-69
2021/10/01 08:32:00;;;;;;;2.90;1.97;;;;;;;13.55;64.56;97201.53;5072766;28;20185;-70
2021/10/01 08:34:31;;;;;;;1.90;1.70;;;;;;;13.52;64.44;97195.94;5072614;28;20197;-70
2021/10/01 08:36:58;;;;;;;2.90;2.10;;;;;;;13.67;64.21;97194.38;5072504;28;20170;-70
2021/10/01 08:39:24;;;;;;;3.77;2.17;;;;;;;13.62;64.97;97193.50;5054357;28;20291;-70
2021/10/01 08:41:50;;;;;;;2.57;2.33;;;;;;;13.58;65.49;97193.16;5072728;28;20654;-69
2021/10/01 08:44:16;;;;;;;3.60;2.23;;;;;;;13.52;65.98;97186.22;5053312;28;20193;-69
2021/10/01 08:46:44;;;;;;;4.87;2.20;;;;;;;13.56;65.31;97191.78;5072581;28;20641;-69
2021/10/01 08:49:12;;;;;;;2.30;1.90;;;;;;;13.56;65.21;97187.31;5072454;28;20193;-71
2021/10/01 08:51:37;;;;;;;4.30;1.90;;;;;;;13.76;64.69;97186.91;5072306;28;20547;-70
2021/10/01 08:54:03;;;;;;;2.10;1.90;;;;;;;13.77;65.16;97179.78;5071897;28;20212;-71
2021/10/01 08:56:29;;;;;;;2.13;1.57;;;;;;;14.15;64.14;97178.06;5071289;28;20173;-70
2021/10/01 08:58:55;;;;;;;3.50;2.00;;;;;;;14.06;64.01;97174.25;5071778;28;20196;-71
2021/10/01 09:01:21;;;;;;;3.37;1.87;;;;;;;14.24;64.01;97169.78;5072083;28;20571;-71
2021/10/01 09:03:47;;;;;;;1.97;1.80;;;;;;;14.43;63.33;97171.16;5072197;28;20191;-70
2021/10/01 09:06:18;;;;;;;2.40;1.80;;;;;;;14.26;64.29;97170.34;5071707;28;20603;-70
2021/10/01 09:09:04;;;;;;;1.97;1.77;;;;;;;14.35;64.01;97155.72;5071603;28;20189;-69
2021/10/01 09:11:33;;;;;;;4.13;1.70;;;;;;;14.43;64.02;97157.97;5056795;28;20529;-70
2021/10/01 09:14:08;;;;;;;2.77;1.90;;;;;;;14.47;63.29;97151.97;5076080;28;20216;-70
2021/10/01 09:16:35;;;;;;;2.87;2.13;;;;;;;14.57;63.14;97154.75;5075970;28;20204;-70
2021/10/01 09:19:02;;;;;;;2.33;1.77;;;;;;;14.62;62.84;97145.31;5060291;28;20177;-70
2021/10/01 09:21:27;;;;;;;1.90;1.70;;;;;;;14.55;63.15;97150.75;5075695;28;20193;-70
2021/10/01 09:23:58;;;;;;;4.23;2.00;;;;;;;14.61;63.04;97141.06;5075452;28;20185;-70
2021/10/01 09:26:25;;;;;;;1.40;1.40;;;;;;;14.64;63.27;97136.13;5075388;28;20189;-70
2021/10/01 09:28:54;;;;;;;2.40;1.60;;;;;;;14.89;62.93;97130.34;5074912;28;20646;-70
2021/10/01 09:31:49;;;;;;;2.70;2.03;;;;;;;15.08;62.28;97136.94;5057500;28;20224;-70
2021/10/01 09:34:16;;;;;;;1.97;1.87;;;;;;;15.20;62.57;97134.97;5074904;28;20661;-70
2021/10/01 09:36:42;;;;;;;2.40;1.83;;;;;;;15.44;61.41;97138.13;5074828;28;20668;-70
2021/10/01 09:39:24;;;;;;;6.23;2.00;;;;;;;15.30;61.53;97134.28;5075442;28;20212;-70
2021/10/01 09:41:50;;;;;;;4.07;2.67;;;;;;;15.35;61.79;97129.84;5075463;28;20189;-70
2021/10/01 09:44:16;;;;;;;1.90;1.80;;;;;;;15.39;62.33;97130.94;5074933;28;20256;-71
2021/10/01 09:46:46;;;;;;;2.87;1.50;;;;;;;15.43;61.26;97122.53;5075148;28;20284;-73
2021/10/01 09:49:16;;;;;;;2.20;1.80;;;;;;;15.52;61.24;97119.22;5075301;28;20188;-71
2021/10/01 09:52:11;;;;;;;1.93;1.50;;;;;;;15.65;60.96;97115.41;5075412;28;20296;-73
2021/10/01 09:54:36;;;;;;;2.13;1.47;;;;;;;15.83;59.86;97107.06;5058987;28;20210;-74
2021/10/01 09:57:05;;;;;;;3.17;1.60;;;;;;;15.92;59.26;97099.50;5074677;28;20540;-72
2021/10/01 09:59:31;;;;;;;2.57;1.30;;;;;;;16.15;58.20;97107.09;5075058;28;20264;-73
2021/10/01 10:02:12;;;;;;;2.80;1.40;;;;;;;16.00;58.67;97096.38;5074938;28;20230;-72
2021/10/01 10:04:45;;;;;;;1.73;1.43;;;;;;;16.00;59.00;97093.72;5060359;28;20656;-72
2021/10/01 10:07:24;;;;;;;1.60;1.40;;;;;;;15.98;59.30;97094.00;5074332;28;20182;-71
2021/10/01 10:10:03;;;;;;;1.60;1.50;;;;;;;16.21;58.67;97083.06;5074307;28;20315;-72
2021/10/01 10:12:37;;;;;;;1.57;1.47;;;;;;;16.22;58.67;97081.19;5074518;28;20182;-73
2021/10/01 10:15:12;;;;;;;3.13;1.40;;;;;;;16.15;59.52;97078.78;5073435;28;20202;-72
2021/10/01 10:17:49;;;;;;;5.73;1.40;;;;;;;16.40;58.65;97072.03;5065250;28;20185;-72
2021/10/01 10:20:16;;;;;;;1.33;1.23;;;;;;;16.68;57.36;97069.03;5074491;28;20177;-73
2021/10/01 10:22:41;;;;;;;1.70;1.30;;;;;;;16.83;56.45;97066.44;5068005;28;20177;-72
2021/10/01 10:25:07;;;;;;;2.07;1.30;;;;;;;16.73;56.08;97062.97;5067311;28;20235;-72
2021/10/01 10:27:32;;;;;;;3.70;1.40;;;;;;;16.73;56.89;97068.25;5073825;28;20169;-73
2021/10/01 10:29:58;;;;;;;2.63;1.40;;;;;;;16.87;56.52;97062.25;5073536;28;20182;-73
2021/10/01 10:32:28;;;;;;;1.70;1.50;;;;;;;16.78;56.89;97069.09;5072255;28;20232;-74
2021/10/01 10:35:02;;;;;;;1.37;1.20;;;;;;;16.94;56.81;97065.44;5048472;28;20215;-73
2021/10/01 10:37:42;;;;;;;1.50;1.40;;;;;;;17.03;56.41;97060.44;5055972;28;20174;-73
2021/10/01 10:40:11;;;;;;;1.73;1.23;;;;;;;17.14;56.20;97059.41;5073546;28;20192;-74
2021/10/01 10:42:44;;;;;;;1.43;1.33;;;;;;;17.11;56.02;97059.16;5073929;28;20173;-73
2021/10/01 10:45:15;;;;;;;1.40;1.30;;;;;;;17.17;56.85;97058.09;5073395;28;20621;-73
2021/10/01 10:47:53;;;;;;;1.17;0.90;;;;;;;17.22;55.14;97056.25;5073724;28;20209;-73
2021/10/01 10:50:21;;;;;;;0.97;0.97;;;;;;;17.33;54.63;97055.19;5072991;28;20196;-73
2021/10/01 10:53:05;;;;;;;1.00;0.90;;;;;;;17.50;53.79;97054.97;5073444;28;20598;-73
2021/10/01 10:55:33;;;;;;;0.90;0.90;;;;;;;17.47;51.42;97047.56;5069763;28;20652;-72
2021/10/01 10:57:59;;;;;;;0.80;0.80;;;;;;;17.54;51.22;97045.44;5073802;28;20177;-73
2021/10/01 11:00:30;;;;;;;0.70;0.70;;;;;;;17.74;50.66;97042.81;5072421;28;20185;-73
2021/10/01 11:03:21;;;;;;;0.83;0.83;;;;;;;17.88;50.23;97048.41;5069595;28;20242;-73
2021/10/01 11:06:09;;;;;;;1.53;0.70;;;;;;;17.96;49.70;97037.22;5072705;28;20192;-73
2021/10/01 11:08:43;;;;;;;1.60;0.73;;;;;;;18.20;49.07;97030.31;5052108;28;20184;-73
2021/10/01 11:11:33;;;;;;;2.83;0.90;;;;;;;18.06;50.01;97036.41;5072755;28;20200;-72
2021/10/01 11:14:25;;;;;;;0.97;0.80;;;;;;;18.26;48.87;97026.59;5073039;28;20236;-72
2021/10/01 11:16:53;;;;;;;0.77;0.77;;;;;;;18.37;48.67;97030.00;5073347;28;20614;-72
2021/10/01 11:19:39;;;;;;;0.80;0.80;;;;;;;18.49;48.80;97027.03;5073029;28;20189;-71
2021/10/01 11:22:30;;;;;;;1.13;0.80;;;;;;;18.45;49.61;97016.16;5047062;28;20185;-71
2021/10/01 11:24:57;;;;;;;1.33;0.80;;;;;;;18.49;49.38;97011.13;5072516;28;20181;-71
2021/10/01 11:27:23;;;;;;;0.80;0.80;;;;;;;18.45;48.75;97008.19;5072815;28;20189;-69
2021/10/01 11:29:48;;;;;;;2.00;0.90;;;;;;;18.29;49.06;97004.78;5073204;28;20192;-70
2021/10/01 11:32:26;;;;;;;1.35;0.80;;;;;;;18.17;49.21;96998.19;5072860;28;20185;-70
2021/10/01 11:34:54;;;;;;;0.63;0.63;;;;;;;18.39;46.93;96990.69;5054933;28;20277;-71
2021/10/01 11:37:26;;;;;;;1.20;0.82;;;;;;;18.50;47.14;96994.91;5055379;28;20178;-70
2021/10/01 11:40:05;;;;;;;1.08;0.73;;;;;;;18.57;47.36;96989.34;5063261;28;20182;-71
2021/10/01 11:42:34;;;;;;;0.80;0.80;;;;;;;18.78;46.89;96982.09;5058660;28;20169;-71
2021/10/01 11:45:09;;;;;;;4.57;1.23;;;;;;;18.83;46.27;96982.06;5055334;28;20272;-71
2021/10/01 11:47:35;;;;;;;2.07;1.00;;;;;;;19.05;44.52;96985.13;5072203;28;20219;-70
2021/10/01 11:50:00;;;;;;;4.07;2.05;;;;;;;19.04;43.28;96976.34;5072097;28;20252;-70
2021/10/01 11:52:27;;;;;;;10.93;3.58;;;;;;;19.09;43.03;96965.69;5054199;28;20269;-70
2021/10/01 11:54:57;;;;;;;2.58;1.00;;;;;;;19.21;42.43;96952.06;5068205;28;20205;-71
2021/10/01 11:57:23;;;;;;;3.05;1.10;;;;;;;19.21;42.53;96959.22;5072054;28;20210;-71
2021/10/01 12:00:02;;;;;;;0.98;0.70;;;;;;;19.47;42.00;96952.66;5072692;28;20173;-71
2021/10/01 12:02:38;;;;;;;3.60;0.88;;;;;;;19.56;41.77;96952.88;5050795;28;20268;-71
2021/10/01 12:05:28;;;;;;;1.48;0.85;;;;;;;19.45;42.59;96950.28;5071730;28;20177;-70
2021/10/01 12:08:04;;;;;;;1.02;1.02;;;;;;;19.56;41.87;96948.31;5071231;28;20188;-71
2021/10/01 12:10:41;;;;;;;0.70;0.70;;;;;;;19.67;41.59;96939.19;5067103;28;20257;-71
2021/10/01 12:13:22;;;;;;;0.82;0.82;;;;;;;19.78;41.09;96932.69;5072073;28;20231;-71
2021/10/01 12:16:01;;;;;;;1.20;0.60;;;;;;;19.76;41.54;96934.84;5053903;28;20184;-71
2021/10/01 12:18:41;;;;;;;0.88;0.88;;;;;;;19.71;41.74;96932.25;5054770;28;20226;-71
2021/10/01 12:21:13;;;;;;;0.60;0.60;;;;;;;19.96;41.98;96920.53;5070105;28;20571;-73
2021/10/01 12:23:44;;;;;;;0.80;0.80;;;;;;;19.96;41.69;96917.06;5067961;28;20185;-72
2021/10/01 12:26:15;;;;;;;2.95;0.90;;;;;;;19.89;41.88;96915.53;5071180;28;20243;-72
2021/10/01 12:28:41;;;;;;;0.90;0.90;;;;;;;20.02;41.91;96907.97;5063097;28;20192;-73
2021/10/01 12:31:07;;;;;;;1.20;0.80;;;;;;;19.98;41.97;96913.06;5071830;28;20186;-72
2021/10/01 12:33:33;;;;;;;1.10;0.68;;;;;;;19.90;42.68;96911.00;5071338;28;20265;-71
2021/10/01 12:36:00;;;;;;;0.80;0.80;;;;;;;20.10;42.70;96913.47;5068902;28;20264;-71
2021/10/01 12:38:26;;;;;;;0.80;0.80;;;;;;;20.18;41.93;96912.03;5071516;28;20185;-70
2021/10/01 12:41:29;;;;;;;1.52;0.77;;;;;;;20.16;43.14;96909.69;5071331;28;20661;-69
2021/10/01 12:43:57;;;;;;;1.05;0.82;;;;;;;20.11;42.66;96908.94;5014921;28;20194;-69
2021/10/01 12:46:43;;;;;;;1.25;0.90;;;;;;;20.18;42.12;96909.38;5065944;28;20602;-69
2021/10/01 12:49:17;;;;;;;1.00;1.00;;;;;;;20.23;40.86;96901.31;5075996;28;20238;-70
2021/10/01 12:51:44;;;;;;;0.98;0.90;;;;;;;20.22;41.27;96897.88;5075691;28;20601;-67
2021/10/01 12:54:24;;;;;;;0.90;0.90;;;;;;;20.30;42.03;96905.22;5075060;28;20201;-70
2021/10/01 12:57:17;;;;;;;1.55;1.35;;;;;;;20.28;41.23;96901.28;5058133;28;20211;-72
2021/10/01 12:59:55;;;;;;;0.80;0.80;;;;;;;20.33;41.34;96896.72;5046262;28;20283;-71
2021/10/01 13:02:26;;;;;;;1.05;0.90;;;;;;;20.46;40.89;96889.88;5075407;28;20178;-71
2021/10/01 13:04:53;;;;;;;1.08;1.08;;;;;;;20.48;41.37;96886.94;5075946;28;20196;-72
2021/10/01 13:07:26;;;;;;;1.08;0.90;;;;;;;20.31;42.32;96882.88;5075620;28;20193;-72
2021/10/01 13:09:54;;;;;;;1.48;1.30;;;;;;;20.44;42.04;96883.28;5075863;28;20310;-69
2021/10/01 13:12:45;;;;;;;1.75;1.20;;;;;;;20.57;41.92;96879.88;5075512;28;20247;-70
2021/10/01 13:15:16;;;;;;;2.33;1.20;;;;;;;20.59;41.48;96877.72;5075826;28;20193;-71